createdAt,value
2018-07-13T00:00:12.177Z,2.40
2018-07-13T00:02:41.071Z,2.10
2018-07-13T00:05:10.995Z,2.33
2018-07-13T00:07:39.529Z,2.00
2018-07-13T00:10:08.079Z,2.20
2018-07-13T00:12:36.773Z,1.80
2018-07-13T00:15:08.548Z,2.30
2018-07-13T00:17:37.089Z,2.50
2018-07-13T00:20:05.892Z,2.23
2018-07-13T00:22:34.498Z,2.30
2018-07-13T00:25:03.021Z,2.20
2018-07-13T00:27:31.566Z,2.10
2018-07-13T00:30:00.134Z,2.63
2018-07-13T00:32:28.651Z,2.50
2018-07-13T00:34:57.173Z,2.07
2018-07-13T00:37:29.899Z,2.03
2018-07-13T00:39:58.452Z,2.40
2018-07-13T00:42:26.992Z,2.60
2018-07-13T00:44:55.503Z,2.50
2018-07-13T00:47:24.021Z,2.60
2018-07-13T00:49:52.602Z,2.43
2018-07-13T00:52:21.161Z,2.30
2018-07-13T00:54:49.665Z,2.37
2018-07-13T00:57:18.258Z,2.13
2018-07-13T00:59:46.791Z,2.40
2018-07-13T01:02:15.315Z,2.30
2018-07-13T01:04:43.893Z,2.27
2018-07-13T01:07:12.514Z,2.37
2018-07-13T01:09:41.037Z,2.27
2018-07-13T01:12:10.060Z,2.50
2018-07-13T01:14:39.138Z,2.10
2018-07-13T01:17:07.700Z,2.40
2018-07-13T01:19:36.253Z,2.27
2018-07-13T01:22:04.874Z,2.80
2018-07-13T01:24:33.398Z,2.20
2018-07-13T01:27:01.931Z,2.57
2018-07-13T01:29:30.496Z,2.23
2018-07-13T01:31:59.641Z,2.40
2018-07-13T01:34:28.194Z,2.30
2018-07-13T01:36:56.701Z,2.80
2018-07-13T01:39:25.334Z,2.43
2018-07-13T01:41:53.901Z,2.43
2018-07-13T01:44:22.410Z,2.27
2018-07-13T01:46:50.958Z,2.93
2018-07-13T01:49:19.489Z,2.67
2018-07-13T01:51:48.033Z,2.57
2018-07-13T01:54:17.182Z,2.90
2018-07-13T01:56:46.688Z,2.77
2018-07-13T01:59:15.213Z,3.13
2018-07-13T02:01:43.715Z,2.40
2018-07-13T02:04:12.233Z,2.53
2018-07-13T02:06:40.905Z,2.60
2018-07-13T02:09:10.457Z,2.60
2018-07-13T02:11:39.010Z,2.23
2018-07-13T02:14:08.271Z,2.37
2018-07-13T02:16:36.816Z,2.87
2018-07-13T02:19:06.965Z,2.53
2018-07-13T02:21:35.527Z,2.73
2018-07-13T02:24:04.042Z,2.47
2018-07-13T02:26:32.672Z,2.63
2018-07-13T02:29:01.197Z,2.50
2018-07-13T02:31:29.923Z,2.83
2018-07-13T02:33:58.487Z,2.70
2018-07-13T02:36:27.037Z,2.90
2018-07-13T02:38:55.573Z,3.07
2018-07-13T02:41:23.792Z,2.50
2018-07-13T02:43:52.789Z,2.63
2018-07-13T02:46:21.316Z,2.87
2018-07-13T02:48:50.056Z,2.70
2018-07-13T02:51:18.681Z,2.63
2018-07-13T02:53:47.195Z,2.83
2018-07-13T02:56:16.085Z,2.97
2018-07-13T02:58:44.616Z,3.00
2018-07-13T03:01:13.125Z,2.50
2018-07-13T03:03:41.658Z,2.53
2018-07-13T03:06:10.190Z,2.73
2018-07-13T03:08:38.515Z,2.93
2018-07-13T03:11:07.201Z,2.87
2018-07-13T03:13:35.829Z,3.10
2018-07-13T03:16:04.482Z,3.17
2018-07-13T03:18:33.371Z,3.50
2018-07-13T03:21:02.070Z,3.03
2018-07-13T03:23:32.676Z,3.30
2018-07-13T03:26:01.225Z,2.90
2018-07-13T03:28:29.741Z,3.70
2018-07-13T03:30:58.285Z,3.93
2018-07-13T03:33:26.520Z,4.50
2018-07-13T03:35:55.086Z,4.27
2018-07-13T03:38:23.708Z,3.83
2018-07-13T03:40:52.247Z,3.90
2018-07-13T03:43:21.761Z,3.60
2018-07-13T03:45:50.335Z,4.10
2018-07-13T03:48:18.868Z,3.60
2018-07-13T03:50:47.493Z,3.57
2018-07-13T03:53:16.965Z,2.80
2018-07-13T03:55:45.506Z,3.23
2018-07-13T03:58:14.049Z,3.53
2018-07-13T04:00:43.195Z,3.20
2018-07-13T04:03:12.205Z,3.23
2018-07-13T04:05:40.719Z,3.37
2018-07-13T04:08:09.374Z,3.97
2018-07-13T04:10:37.965Z,3.20
2018-07-13T04:13:06.621Z,3.70
2018-07-13T04:15:35.821Z,3.00
2018-07-13T04:18:04.406Z,3.00
2018-07-13T04:20:33.493Z,3.20
2018-07-13T04:23:02.081Z,2.97
2018-07-13T04:25:30.650Z,3.63
2018-07-13T04:27:59.169Z,3.53
2018-07-13T04:30:27.700Z,3.57
2018-07-13T04:32:56.222Z,3.47
2018-07-13T04:35:24.756Z,3.17
2018-07-13T04:37:53.031Z,3.10
2018-07-13T04:40:21.553Z,3.27
2018-07-13T04:42:50.147Z,3.47
2018-07-13T04:45:18.778Z,3.83
2018-07-13T04:47:47.369Z,3.57
2018-07-13T04:50:16.054Z,3.63
2018-07-13T04:52:44.532Z,3.30
2018-07-13T04:55:13.100Z,3.63
2018-07-13T04:57:41.650Z,3.33
2018-07-13T05:00:10.270Z,3.43
2018-07-13T05:02:38.901Z,4.40
2018-07-13T05:05:07.823Z,3.83
2018-07-13T05:07:36.441Z,4.43
2018-07-13T05:10:04.720Z,3.77
2018-07-13T05:12:33.357Z,4.20
2018-07-13T05:15:01.890Z,3.53
2018-07-13T05:17:31.528Z,3.70
2018-07-13T05:20:00.056Z,3.73
2018-07-13T05:22:28.590Z,3.83
2018-07-13T05:24:57.169Z,2.93
2018-07-13T05:27:25.911Z,3.50
2018-07-13T05:29:54.469Z,3.53
2018-07-13T05:32:22.995Z,3.23
2018-07-13T05:34:51.573Z,3.10
2018-07-13T05:37:20.171Z,3.77
2018-07-13T05:39:49.054Z,3.10
2018-07-13T05:42:17.892Z,3.10
2018-07-13T05:44:46.453Z,3.37
2018-07-13T05:47:15.877Z,3.10
2018-07-13T05:49:44.501Z,2.80
2018-07-13T05:52:13.122Z,3.37
2018-07-13T05:54:41.732Z,3.40
2018-07-13T05:57:10.359Z,3.40
2018-07-13T05:59:38.938Z,3.27
2018-07-13T06:02:07.575Z,3.03
2018-07-13T06:04:36.150Z,3.50
2018-07-13T06:07:04.731Z,3.60
2018-07-13T06:09:33.865Z,3.63
2018-07-13T06:12:02.567Z,3.20
2018-07-13T06:14:31.170Z,2.80
2018-07-13T06:16:59.722Z,3.43
2018-07-13T06:19:28.297Z,3.37
2018-07-13T06:21:57.521Z,3.07
2018-07-13T06:24:26.138Z,2.67
2018-07-13T06:26:54.766Z,3.03
2018-07-13T06:29:23.408Z,3.20
2018-07-13T06:31:52.015Z,3.13
2018-07-13T06:34:21.472Z,3.10
2018-07-13T06:36:50.028Z,2.70
2018-07-13T06:39:19.229Z,3.07
2018-07-13T06:41:48.698Z,2.57
2018-07-13T06:44:17.266Z,3.30
2018-07-13T06:46:47.355Z,2.40
2018-07-13T06:49:16.633Z,2.40
2018-07-13T06:51:47.301Z,2.70
2018-07-13T06:54:16.261Z,2.73
2018-07-13T06:56:44.793Z,2.50
2018-07-13T06:59:20.650Z,2.83
2018-07-13T07:01:49.482Z,2.53
2018-07-13T07:04:23.697Z,2.93
2018-07-13T07:06:55.560Z,2.30
2018-07-13T07:09:24.901Z,2.50
2018-07-13T07:13:07.885Z,3.10
2018-07-13T07:15:36.718Z,2.60
2018-07-13T07:18:05.254Z,2.70
2018-07-13T07:20:34.808Z,2.70
2018-07-13T07:23:03.358Z,2.60
2018-07-13T07:25:32.005Z,2.50
2018-07-13T07:28:00.517Z,2.70
2018-07-13T07:30:29.118Z,2.30
2018-07-13T07:32:57.645Z,2.10
2018-07-13T07:35:26.472Z,2.30
2018-07-13T07:37:55.973Z,2.07
2018-07-13T07:40:24.574Z,2.30
2018-07-13T07:42:53.105Z,2.70
2018-07-13T07:45:21.629Z,2.43
2018-07-13T07:47:50.185Z,2.20
2018-07-13T07:50:18.732Z,2.53
2018-07-13T07:52:47.263Z,2.33
2018-07-13T07:55:16.654Z,2.57
2018-07-13T07:57:45.474Z,2.43
2018-07-13T08:00:14.010Z,2.30
2018-07-13T08:02:42.586Z,2.30
2018-07-13T08:05:11.166Z,2.60
2018-07-13T08:07:39.911Z,2.57
2018-07-13T08:10:08.429Z,1.70
2018-07-13T08:12:37.458Z,2.90
2018-07-13T08:15:06.047Z,2.60
2018-07-13T08:17:34.651Z,2.37
2018-07-13T08:20:04.161Z,2.87
2018-07-13T08:22:37.758Z,2.43
2018-07-13T08:25:07.209Z,2.27
2018-07-13T08:27:46.545Z,2.37
2018-07-13T08:30:22.582Z,2.33
2018-07-13T08:32:51.881Z,2.53
2018-07-13T08:35:20.666Z,2.23
2018-07-13T08:37:49.567Z,2.10
2018-07-13T08:40:19.100Z,2.13
2018-07-13T08:42:47.642Z,2.30
2018-07-13T08:45:16.201Z,2.57
2018-07-13T08:47:44.725Z,2.27
2018-07-13T08:50:13.329Z,2.27
2018-07-13T08:52:41.809Z,2.60
2018-07-13T08:55:12.882Z,2.00
2018-07-13T08:57:43.410Z,2.60
2018-07-13T09:00:11.929Z,3.13
2018-07-13T09:02:41.346Z,2.80
2018-07-13T09:05:10.485Z,2.87
2018-07-13T09:07:39.196Z,2.27
2018-07-13T09:10:07.797Z,2.37
2018-07-13T09:12:36.369Z,3.53
2018-07-13T09:15:04.889Z,2.87
2018-07-13T09:17:33.766Z,2.53
2018-07-13T09:20:02.305Z,2.50
2018-07-13T09:22:30.874Z,2.33
2018-07-13T09:24:59.514Z,2.27
2018-07-13T09:27:28.051Z,2.03
2018-07-13T09:29:56.563Z,2.53
2018-07-13T09:32:25.106Z,2.70
2018-07-13T09:34:53.699Z,2.30
2018-07-13T09:37:22.233Z,2.07
2018-07-13T09:39:51.361Z,2.17
2018-07-13T09:42:19.887Z,2.23
2018-07-13T09:44:48.404Z,2.57
2018-07-13T09:47:17.086Z,2.37
2018-07-13T09:49:45.569Z,2.57
2018-07-13T09:52:14.146Z,2.50
2018-07-13T09:54:43.657Z,2.43
2018-07-13T09:57:12.480Z,1.97
2018-07-13T09:59:41.518Z,2.30
2018-07-13T10:02:10.074Z,2.27
2018-07-13T10:04:38.633Z,2.23
2018-07-13T10:07:07.345Z,1.83
2018-07-13T10:09:35.909Z,2.50
2018-07-13T10:12:04.581Z,2.60
2018-07-13T10:14:32.788Z,2.40
2018-07-13T10:17:01.313Z,2.37
2018-07-13T10:19:29.870Z,2.60
2018-07-13T10:21:58.677Z,2.50
2018-07-13T10:24:28.052Z,3.13
2018-07-13T10:26:58.126Z,2.73
2018-07-13T10:29:31.692Z,2.23
2018-07-13T10:32:00.982Z,2.20
2018-07-13T10:34:30.139Z,2.47
2018-07-13T10:37:01.108Z,2.63
2018-07-13T10:39:30.561Z,2.20
2018-07-13T10:41:58.787Z,2.53
2018-07-13T10:44:27.302Z,2.97
2018-07-13T10:46:55.885Z,3.03
2018-07-13T10:49:24.531Z,2.67
2018-07-13T10:51:53.374Z,3.07
2018-07-13T10:54:21.937Z,2.60
2018-07-13T10:56:50.765Z,3.13
2018-07-13T10:59:19.308Z,2.73
2018-07-13T11:01:47.834Z,2.80
2018-07-13T11:04:17.676Z,3.30
2018-07-13T11:06:46.236Z,3.43
2018-07-13T11:09:14.793Z,3.53
2018-07-13T11:11:43.352Z,3.00
2018-07-13T11:14:11.869Z,3.43
2018-07-13T11:16:41.168Z,3.50
2018-07-13T11:19:09.721Z,3.60
2018-07-13T11:21:38.874Z,3.20
2018-07-13T11:24:07.459Z,3.47
2018-07-13T11:26:37.046Z,3.43
2018-07-13T11:29:05.609Z,3.60
2018-07-13T11:31:34.799Z,3.20
2018-07-13T11:34:04.214Z,3.13
2018-07-13T11:36:32.766Z,3.57
2018-07-13T11:39:01.314Z,3.10
2018-07-13T11:41:29.850Z,3.10
2018-07-13T11:43:59.116Z,2.80
2018-07-13T11:46:27.671Z,2.60
2018-07-13T11:48:56.194Z,3.30
2018-07-13T11:51:24.842Z,3.13
2018-07-13T11:53:53.693Z,2.93
2018-07-13T11:56:22.914Z,3.20
2018-07-13T11:58:51.441Z,2.87
2018-07-13T12:01:19.998Z,3.67
2018-07-13T12:03:48.510Z,2.93
2018-07-13T12:06:17.058Z,3.40
2018-07-13T12:08:48.253Z,3.10
2018-07-13T12:11:17.276Z,3.20
2018-07-13T12:13:46.049Z,3.47
2018-07-13T12:16:15.549Z,3.37
2018-07-13T12:18:44.106Z,3.10
2018-07-13T12:21:12.646Z,3.00
2018-07-13T12:23:41.519Z,2.87
2018-07-13T12:26:10.073Z,2.80
2018-07-13T12:28:38.603Z,3.87
2018-07-13T12:31:08.265Z,3.00
2018-07-13T12:33:36.794Z,3.20
2018-07-13T12:36:06.564Z,3.00
2018-07-13T12:38:35.089Z,2.80
2018-07-13T12:41:03.617Z,3.00
2018-07-13T12:43:32.141Z,3.07
2018-07-13T12:46:00.707Z,2.50
2018-07-13T12:48:29.218Z,2.93
2018-07-13T12:50:57.845Z,3.10
2018-07-13T12:53:26.396Z,2.80
2018-07-13T12:55:55.325Z,2.40
2018-07-13T12:58:23.868Z,2.47
2018-07-13T13:00:52.508Z,2.63
2018-07-13T13:03:21.074Z,2.20
2018-07-13T13:05:49.610Z,2.70
2018-07-13T13:08:18.233Z,2.80
2018-07-13T13:10:46.873Z,3.13
2018-07-13T13:13:16.262Z,4.40
2018-07-13T13:15:46.242Z,2.40
2018-07-13T13:18:14.785Z,3.17
2018-07-13T13:20:43.349Z,2.40
2018-07-13T13:23:14.281Z,2.63
2018-07-13T13:25:44.238Z,2.73
2018-07-13T13:28:13.342Z,2.60
2018-07-13T13:30:42.019Z,2.47
2018-07-13T13:33:10.554Z,2.43
2018-07-13T13:35:39.245Z,2.97
2018-07-13T13:38:07.825Z,2.50
2018-07-13T13:40:36.546Z,2.50
2018-07-13T13:43:05.062Z,2.30
2018-07-13T13:45:33.690Z,2.80
2018-07-13T13:48:02.206Z,2.50
2018-07-13T13:50:30.940Z,2.70
2018-07-13T13:52:59.474Z,2.50
2018-07-13T13:55:28.031Z,3.40
2018-07-13T13:57:56.550Z,2.50
2018-07-13T14:00:25.074Z,2.63
2018-07-13T14:02:53.602Z,2.20
2018-07-13T14:05:22.319Z,2.87
2018-07-13T14:07:50.928Z,2.60
2018-07-13T14:10:19.552Z,2.93
2018-07-13T14:12:48.117Z,2.70
2018-07-13T14:15:16.661Z,2.40
2018-07-13T14:17:45.190Z,2.50
2018-07-13T14:20:13.718Z,2.87
2018-07-13T14:22:43.275Z,2.70
2018-07-13T14:25:11.819Z,2.70
2018-07-13T14:27:40.420Z,2.37
2018-07-13T14:30:09.541Z,2.90
2018-07-13T14:32:38.238Z,3.10
2018-07-13T14:35:07.126Z,2.57
2018-07-13T14:37:36.470Z,2.60
2018-07-13T14:40:05.005Z,2.70
2018-07-13T14:42:33.558Z,2.57
2018-07-13T14:45:02.074Z,2.70
2018-07-13T14:47:30.950Z,2.40
2018-07-13T14:50:00.614Z,2.90
2018-07-13T14:52:29.181Z,2.50
2018-07-13T14:54:57.722Z,2.63
2018-07-13T14:57:26.571Z,2.43
2018-07-13T14:59:55.098Z,2.50
2018-07-13T15:02:23.634Z,2.63
2018-07-13T15:04:52.876Z,2.40
2018-07-13T15:07:21.429Z,2.37
2018-07-13T15:09:50.407Z,2.33
2018-07-13T15:12:18.933Z,2.33
2018-07-13T15:14:47.233Z,2.43
2018-07-13T15:17:16.187Z,2.40
2018-07-13T15:19:46.077Z,2.90
2018-07-13T15:22:14.666Z,2.13
2018-07-13T15:24:43.198Z,2.40
2018-07-13T15:27:11.718Z,2.23
2018-07-13T15:29:40.290Z,2.30
2018-07-13T15:32:08.840Z,2.30
2018-07-13T15:34:37.566Z,2.20
2018-07-13T15:37:06.115Z,2.90
2018-07-13T15:39:34.412Z,2.57
2018-07-13T15:42:02.939Z,2.80
2018-07-13T15:44:31.485Z,2.23
2018-07-13T15:46:59.995Z,2.67
2018-07-13T15:49:29.837Z,2.23
2018-07-13T15:51:59.341Z,2.40
2018-07-13T15:54:28.707Z,2.57
2018-07-13T15:56:57.602Z,2.50
2018-07-13T15:59:26.345Z,2.70
2018-07-13T16:01:57.045Z,2.57
2018-07-13T16:04:25.605Z,2.47
2018-07-13T16:06:55.089Z,2.77
2018-07-13T16:09:24.235Z,2.63
2018-07-13T16:11:53.110Z,2.50
2018-07-13T16:14:22.007Z,2.67
2018-07-13T16:16:50.901Z,2.77
2018-07-13T16:19:19.426Z,2.47
2018-07-13T16:21:48.202Z,2.20
2018-07-13T16:24:16.822Z,2.40
2018-07-13T16:26:45.340Z,2.60
2018-07-13T16:29:14.892Z,2.67
2018-07-13T16:31:43.423Z,3.47
2018-07-13T16:34:12.106Z,2.80
2018-07-13T16:36:40.671Z,2.90
2018-07-13T16:39:09.210Z,3.30
2018-07-13T16:41:37.754Z,2.90
2018-07-13T16:44:06.400Z,2.33
2018-07-13T16:46:35.033Z,2.40
2018-07-13T16:49:03.584Z,2.40
2018-07-13T16:51:32.162Z,2.77
2018-07-13T16:54:00.719Z,2.33
2018-07-13T16:56:29.276Z,2.80
2018-07-13T16:58:57.828Z,2.80
2018-07-13T17:01:26.356Z,2.53
2018-07-13T17:03:55.683Z,2.23
2018-07-13T17:06:24.229Z,3.07
2018-07-13T17:08:52.787Z,2.53
2018-07-13T17:11:21.915Z,5.10
2018-07-13T17:13:51.114Z,5.03
2018-07-13T17:16:19.645Z,2.87
2018-07-13T17:18:49.938Z,3.93
2018-07-13T17:21:18.460Z,3.07
2018-07-13T17:23:49.238Z,2.53
2018-07-13T17:26:17.831Z,3.00
2018-07-13T17:28:46.332Z,2.40
2018-07-13T17:31:15.199Z,2.07
2018-07-13T17:33:44.585Z,2.77
2018-07-13T17:36:14.212Z,2.80
2018-07-13T17:38:43.340Z,3.00
2018-07-13T17:41:11.947Z,2.40
2018-07-13T17:43:40.595Z,2.90
2018-07-13T17:46:10.340Z,4.03
2018-07-13T17:48:39.439Z,4.20
2018-07-13T17:51:09.166Z,3.73
2018-07-13T17:53:39.355Z,2.93
2018-07-13T17:56:07.927Z,2.70
2018-07-13T17:58:36.488Z,3.37
2018-07-13T18:01:06.160Z,5.30
2018-07-13T18:03:34.596Z,3.80
2018-07-13T18:06:03.146Z,2.87
2018-07-13T18:08:32.275Z,2.50
2018-07-13T18:11:00.802Z,2.47
2018-07-13T18:13:29.329Z,2.77
2018-07-13T18:15:57.873Z,2.43
2018-07-13T18:18:26.406Z,1.97
2018-07-13T18:20:54.945Z,2.50
2018-07-13T18:23:23.671Z,2.53
2018-07-13T18:25:52.201Z,2.30
2018-07-13T18:28:20.738Z,2.37
2018-07-13T18:30:49.922Z,2.03
2018-07-13T18:33:18.503Z,2.50
2018-07-13T18:35:46.722Z,2.20
2018-07-13T18:38:15.281Z,2.03
2018-07-13T18:40:43.838Z,2.07
2018-07-13T18:43:12.382Z,2.83
2018-07-13T18:45:41.772Z,2.10
2018-07-13T18:48:10.314Z,2.20
2018-07-13T18:50:39.894Z,2.23
2018-07-13T18:53:08.421Z,2.33
2018-07-13T18:55:36.996Z,2.00
2018-07-13T18:58:05.795Z,2.10
2018-07-13T19:00:34.371Z,1.80
2018-07-13T19:03:03.542Z,1.97
2018-07-13T19:05:32.102Z,2.27
2018-07-13T19:08:00.614Z,1.97
2018-07-13T19:10:29.314Z,1.83
2018-07-13T19:12:58.006Z,1.73
2018-07-13T19:15:28.394Z,1.97
2018-07-13T19:17:57.114Z,1.80
2018-07-13T19:20:25.649Z,1.80
2018-07-13T19:22:54.234Z,2.20
2018-07-13T19:25:23.640Z,1.97
2018-07-13T19:27:52.207Z,2.10
2018-07-13T19:30:20.791Z,2.10
2018-07-13T19:32:49.373Z,2.40
2018-07-13T19:35:19.218Z,2.40
2018-07-13T19:37:47.906Z,1.73
2018-07-13T19:40:16.464Z,2.30
2018-07-13T19:42:45.610Z,1.90
2018-07-13T19:45:15.131Z,1.93
2018-07-13T19:47:43.766Z,1.97
2018-07-13T19:50:12.323Z,1.93
2018-07-13T19:52:40.838Z,1.73
2018-07-13T19:55:09.945Z,2.20
2018-07-13T19:57:38.578Z,1.70
2018-07-13T20:00:07.140Z,1.80
2018-07-13T20:02:35.742Z,1.77
2018-07-13T20:05:04.322Z,1.70
2018-07-13T20:07:32.978Z,1.67
2018-07-13T20:10:01.646Z,2.10
2018-07-13T20:12:30.197Z,1.80
2018-07-13T20:14:58.802Z,2.20
2018-07-13T20:17:27.441Z,2.10
2018-07-13T20:19:56.015Z,1.70
2018-07-13T20:22:24.565Z,1.40
2018-07-13T20:24:54.097Z,1.87
2018-07-13T20:27:22.942Z,1.60
2018-07-13T20:29:51.472Z,1.50
2018-07-13T20:32:19.992Z,1.70
2018-07-13T20:34:48.513Z,1.70
2018-07-13T20:37:17.241Z,2.00
2018-07-13T20:39:45.796Z,1.70
2018-07-13T20:42:15.478Z,1.83
2018-07-13T20:44:45.417Z,1.90
2018-07-13T20:47:15.358Z,1.40
2018-07-13T20:49:44.129Z,1.80
2018-07-13T20:52:12.704Z,1.57
2018-07-13T20:54:42.589Z,1.50
2018-07-13T20:57:11.150Z,1.70
2018-07-13T20:59:39.974Z,1.43
2018-07-13T21:02:08.558Z,1.67
2018-07-13T21:04:37.191Z,1.63
2018-07-13T21:07:06.838Z,1.80
2018-07-13T21:09:35.407Z,1.57
2018-07-13T21:12:04.812Z,1.80
2018-07-13T21:14:34.041Z,1.70
2018-07-13T21:17:02.598Z,1.40
2018-07-13T21:19:31.118Z,1.73
2018-07-13T21:21:59.653Z,1.60
2018-07-13T21:24:28.214Z,1.67
2018-07-13T21:26:56.821Z,1.30
2018-07-13T21:29:25.317Z,1.53
2018-07-13T21:31:53.931Z,1.40
2018-07-13T21:34:22.471Z,1.37
2018-07-13T21:36:51.691Z,1.60
2018-07-13T21:39:20.209Z,1.60
2018-07-13T21:41:48.975Z,1.77
2018-07-13T21:44:17.534Z,2.27
2018-07-13T21:46:46.283Z,1.33
2018-07-13T21:49:14.819Z,2.00
2018-07-13T21:51:43.398Z,1.60
2018-07-13T21:54:11.957Z,1.50
2018-07-13T21:56:40.867Z,2.30
2018-07-13T21:59:09.410Z,1.50
2018-07-13T22:01:38.317Z,1.57
2018-07-13T22:04:06.829Z,2.07
2018-07-13T22:06:35.362Z,1.83
2018-07-13T22:09:04.415Z,1.80
2018-07-13T22:11:32.927Z,1.73
2018-07-13T22:14:01.446Z,1.50
2018-07-13T22:16:30.490Z,1.73
2018-07-13T22:18:59.033Z,2.30
2018-07-13T22:21:27.535Z,2.00
2018-07-13T22:23:56.039Z,2.00
2018-07-13T22:26:24.626Z,1.77
2018-07-13T22:28:53.101Z,2.00
2018-07-13T22:31:21.630Z,2.03
2018-07-13T22:33:50.129Z,2.43
2018-07-13T22:36:18.650Z,2.50
2018-07-13T22:38:48.111Z,2.20
2018-07-13T22:41:16.610Z,2.17
2018-07-13T22:43:45.240Z,2.63
2018-07-13T22:46:13.789Z,2.27
2018-07-13T22:48:42.309Z,2.30
2018-07-13T22:51:10.884Z,1.90
2018-07-13T22:53:39.384Z,2.30
2018-07-13T22:56:08.713Z,2.03
2018-07-13T22:58:37.217Z,1.90
2018-07-13T23:01:05.745Z,1.80
2018-07-13T23:03:34.282Z,2.27
2018-07-13T23:06:03.038Z,2.10
2018-07-13T23:08:31.577Z,1.77
2018-07-13T23:11:00.449Z,1.77
2018-07-13T23:13:29.253Z,2.17
2018-07-13T23:15:58.105Z,1.77
2018-07-13T23:18:26.629Z,1.90
2018-07-13T23:20:55.735Z,1.90
2018-07-13T23:23:24.298Z,1.93
2018-07-13T23:25:52.763Z,2.13
2018-07-13T23:28:21.361Z,2.10
2018-07-13T23:30:49.883Z,2.43
2018-07-13T23:33:18.420Z,2.10
2018-07-13T23:35:47.450Z,2.37
2018-07-13T23:38:16.014Z,2.27
2018-07-13T23:40:44.549Z,3.17
2018-07-13T23:43:13.197Z,2.27
2018-07-13T23:45:41.391Z,2.37
2018-07-13T23:48:09.958Z,2.60
2018-07-13T23:50:38.471Z,2.40
2018-07-13T23:53:06.994Z,2.40
2018-07-13T23:55:35.518Z,2.40
2018-07-13T23:58:04.169Z,2.73
